Time;durP1;ratioP1;P1;durP2;ratioP2;P2;SDS_P1;SDS_P2;PMS_P1;PMS_P2;Temp;Humidity;BMP_temperature;BMP_pressure;BME280_temperature;BME280_humidity;BME280_pressure;Samples;Min_cycle;Max_cycle;Signal;HPM_P1;HPM_P2
2021/06/17 00:01:54;;;;;;;6.82;4.10;;;;;;;;;;5009748;28;20089;-34
2021/06/17 00:04:22;;;;;;;5.82;4.20;;;;;;;;;;5011163;28;20085;-34
2021/06/17 00:06:48;;;;;;;7.40;4.40;;;;;;;;;;4998753;28;20126;-34
2021/06/17 00:09:16;;;;;;;5.70;3.78;;;;;;;;;;5012549;28;20128;-34
2021/06/17 00:11:43;;;;;;;6.07;4.00;;;;;;;;;;5010096;28;20077;-34
2021/06/17 00:14:09;;;;;;;5.80;4.20;;;;;;;;;;5001105;28;20052;-34
2021/06/17 00:16:36;;;;;;;10.43;4.57;;;;;;;;;;5009250;28;20127;-34
2021/06/17 00:19:04;;;;;;;4.72;4.07;;;;;;;;;;4995007;28;20053;-33
2021/06/17 00:21:31;;;;;;;5.82;4.00;;;;;;;;;;4996633;28;20050;-35
2021/06/17 00:23:57;;;;;;;7.72;4.38;;;;;;;;;;5012659;28;20058;-35
2021/06/17 00:26:24;;;;;;;8.90;4.20;;;;;;;;;;4998836;28;20478;-35
2021/06/17 00:28:51;;;;;;;6.70;4.53;;;;;;;;;;5007487;28;20056;-38
2021/06/17 00:31:18;;;;;;;8.18;4.53;;;;;;;;;;5008086;28;20046;-35
2021/06/17 00:33:45;;;;;;;7.55;4.53;;;;;;;;;;5010566;28;20056;-35
2021/06/17 00:36:12;;;;;;;7.07;4.75;;;;;;;;;;5006539;28;20050;-36
2021/06/17 00:38:38;;;;;;;8.63;4.50;;;;;;;;;;5011066;28;20065;-36
2021/06/17 00:41:05;;;;;;;10.82;4.90;;;;;;;;;;4994055;28;20073;-35
2021/06/17 00:43:32;;;;;;;8.77;4.50;;;;;;;;;;5009193;28;20153;-36
2021/06/17 00:45:59;;;;;;;6.18;3.92;;;;;;;;;;5010085;28;20111;-34
2021/06/17 00:48:26;;;;;;;7.05;4.35;;;;;;;;;;5001238;28;20046;-35
2021/06/17 00:50:54;;;;;;;10.57;4.65;;;;;;;;;;4997952;28;20081;-34
2021/06/17 00:53:26;;;;;;;6.57;4.25;;;;;;;;;;5012549;28;20125;-35
2021/06/17 00:55:53;;;;;;;7.03;4.53;;;;;;;;;;5009418;28;20076;-35
2021/06/17 00:58:20;;;;;;;6.97;4.32;;;;;;;;;;5002850;28;20128;-34
2021/06/17 01:00:47;;;;;;;8.25;4.10;;;;;;;;;;5010865;28;20052;-34
2021/06/17 01:03:14;;;;;;;6.97;4.20;;;;;;;;;;5010960;28;20053;-34
2021/06/17 01:05:41;;;;;;;6.10;4.38;;;;;;;;;;5009865;28;20136;-35
2021/06/17 01:08:08;;;;;;;6.43;4.22;;;;;;;;;;5010024;28;20460;-34
2021/06/17 01:10:48;;;;;;;7.70;4.28;;;;;;;;;;5009983;28;20078;-34
2021/06/17 01:13:34;;;;;;;9.48;5.00;;;;;;;;;;4974644;28;20085;-33
2021/06/17 01:16:12;;;;;;;6.07;4.35;;;;;;;;;;4997874;28;20507;-34
2021/06/17 01:18:42;;;;;;;5.50;4.63;;;;;;;;;;5004106;28;20053;-34
2021/06/17 01:21:13;;;;;;;7.32;3.95;;;;;;;;;;5010613;28;20077;-35
2021/06/17 01:23:52;;;;;;;12.25;4.88;;;;;;;;;;5011182;28;20077;-34
2021/06/17 01:26:22;;;;;;;6.60;4.20;;;;;;;;;;5008874;28;20140;-34
2021/06/17 01:28:51;;;;;;;6.07;4.32;;;;;;;;;;5000082;28;20167;-35
2021/06/17 01:31:22;;;;;;;9.57;4.80;;;;;;;;;;4975194;28;20075;-34
2021/06/17 01:33:50;;;;;;;7.30;4.40;;;;;;;;;;5010150;28;20045;-35
2021/06/17 01:36:22;;;;;;;7.43;4.30;;;;;;;;;;5007815;28;20104;-34
2021/06/17 01:38:50;;;;;;;9.30;4.60;;;;;;;;;;5010697;28;20133;-34
2021/06/17 01:41:19;;;;;;;7.07;4.60;;;;;;;;;;5011142;28;20128;-34
2021/06/17 01:43:47;;;;;;;6.35;5.03;;;;;;;;;;4992068;28;20121;-34
2021/06/17 01:46:14;;;;;;;6.28;5.00;;;;;;;;;;4997696;28;20157;-34
2021/06/17 01:48:42;;;;;;;8.75;5.22;;;;;;;;;;5020049;28;20058;-34
2021/06/17 01:51:09;;;;;;;5.50;4.63;;;;;;;;;;5009798;28;20136;-34
2021/06/17 01:53:37;;;;;;;6.30;4.50;;;;;;;;;;5008392;28;20142;-35
2021/06/17 01:56:04;;;;;;;8.75;5.10;;;;;;;;;;5002084;28;20133;-35
2021/06/17 01:58:31;;;;;;;6.45;4.70;;;;;;;;;;5003090;28;20081;-33
2021/06/17 02:00:59;;;;;;;11.10;4.72;;;;;;;;;;5013194;28;20064;-34
2021/06/17 02:03:26;;;;;;;7.00;5.15;;;;;;;;;;5014304;28;20114;-34
2021/06/17 02:05:53;;;;;;;6.60;4.63;;;;;;;;;;5000122;28;20134;-34
2021/06/17 02:08:21;;;;;;;8.50;5.07;;;;;;;;;;4999880;28;20049;-35
2021/06/17 02:10:49;;;;;;;8.60;5.20;;;;;;;;;;5013375;28;20083;-35
2021/06/17 02:13:16;;;;;;;7.22;4.93;;;;;;;;;;5000115;28;20042;-35
2021/06/17 02:15:46;;;;;;;7.32;5.20;;;;;;;;;;5014145;28;20141;-35
2021/06/17 02:18:14;;;;;;;6.32;4.90;;;;;;;;;;5005229;28;20133;-35
2021/06/17 02:20:41;;;;;;;6.60;5.63;;;;;;;;;;5014774;28;20518;-35
2021/06/17 02:23:10;;;;;;;6.10;5.15;;;;;;;;;;5019608;28;20128;-34
2021/06/17 02:25:37;;;;;;;8.20;5.15;;;;;;;;;;5014862;28;20505;-35
2021/06/17 02:28:09;;;;;;;9.07;5.97;;;;;;;;;;5006323;28;20125;-34
2021/06/17 02:30:36;;;;;;;6.60;5.10;;;;;;;;;;5005509;28;20135;-34
2021/06/17 02:33:05;;;;;;;6.43;5.63;;;;;;;;;;5003266;28;20070;-35
2021/06/17 02:35:32;;;;;;;8.35;5.35;;;;;;;;;;4997612;28;20447;-34
2021/06/17 02:38:01;;;;;;;7.63;5.70;;;;;;;;;;4998278;28;20531;-36
2021/06/17 02:40:29;;;;;;;6.78;5.55;;;;;;;;;;5014122;28;20064;-36
2021/06/17 02:43:05;;;;;;;7.45;5.68;;;;;;;;;;4997007;28;20042;-35
2021/06/17 02:45:32;;;;;;;9.95;5.60;;;;;;;;;;4983667;28;20046;-36
2021/06/17 02:47:59;;;;;;;8.20;4.95;;;;;;;;;;5004846;28;20113;-36
2021/06/17 02:50:26;;;;;;;11.07;6.35;;;;;;;;;;5010038;28;20184;-36
2021/06/17 02:52:52;;;;;;;7.72;6.10;;;;;;;;;;5012166;28;20077;-35
2021/06/17 02:55:19;;;;;;;9.77;5.95;;;;;;;;;;5014198;28;20121;-35
2021/06/17 02:57:49;;;;;;;8.13;6.25;;;;;;;;;;5008891;28;20069;-36
2021/06/17 03:00:17;;;;;;;8.75;6.40;;;;;;;;;;5012616;28;20584;-35
2021/06/17 03:02:56;;;;;;;7.88;6.10;;;;;;;;;;5011225;28;20056;-36
2021/06/17 03:05:23;;;;;;;7.97;6.25;;;;;;;;;;4993982;28;20062;-36
2021/06/17 03:07:52;;;;;;;7.07;5.70;;;;;;;;;;5007529;28;20077;-34
2021/06/17 03:10:20;;;;;;;6.88;6.03;;;;;;;;;;5011565;28;20085;-35
2021/06/17 03:12:48;;;;;;;8.63;5.68;;;;;;;;;;4997227;28;20051;-35
2021/06/17 03:15:15;;;;;;;9.88;6.10;;;;;;;;;;5012929;28;20042;-35
2021/06/17 03:17:44;;;;;;;7.82;6.03;;;;;;;;;;5008419;28;20118;-34
2021/06/17 03:20:11;;;;;;;8.25;6.80;;;;;;;;;;5004183;28;20229;-35
2021/06/17 03:22:41;;;;;;;8.95;6.32;;;;;;;;;;5010843;28;20054;-35
2021/06/17 03:25:10;;;;;;;8.20;6.53;;;;;;;;;;5012984;28;20451;-35
2021/06/17 03:27:38;;;;;;;11.13;7.05;;;;;;;;;;5011352;28;20050;-34
2021/06/17 03:30:05;;;;;;;12.38;6.55;;;;;;;;;;5008824;28;20049;-35
2021/06/17 03:32:33;;;;;;;15.50;7.32;;;;;;;;;;5011021;28;20080;-34
2021/06/17 03:35:01;;;;;;;11.57;7.15;;;;;;;;;;5008009;28;20081;-35
2021/06/17 03:37:29;;;;;;;10.13;6.85;;;;;;;;;;5011562;28;20038;-34
2021/06/17 03:39:57;;;;;;;11.43;6.25;;;;;;;;;;5012034;28;20128;-36
2021/06/17 03:42:24;;;;;;;10.75;6.55;;;;;;;;;;5013482;28;20112;-36
2021/06/17 03:44:51;;;;;;;10.25;6.30;;;;;;;;;;4998962;28;20053;-35
2021/06/17 03:47:20;;;;;;;13.10;7.40;;;;;;;;;;5008793;28;20104;-35
2021/06/17 03:49:48;;;;;;;12.07;6.55;;;;;;;;;;5004684;28;20153;-34
2021/06/17 03:52:15;;;;;;;10.23;6.60;;;;;;;;;;5011956;28;20093;-34
2021/06/17 03:54:45;;;;;;;9.57;6.32;;;;;;;;;;5013147;28;20133;-35
2021/06/17 03:57:12;;;;;;;10.13;6.90;;;;;;;;;;5009343;28;20124;-35
2021/06/17 03:59:42;;;;;;;12.73;7.15;;;;;;;;;;5000261;28;20140;-35
2021/06/17 04:02:10;;;;;;;11.15;6.50;;;;;;;;;;5010406;28;20077;-34
2021/06/17 04:04:38;;;;;;;7.85;6.32;;;;;;;;;;5010988;28;20046;-35
2021/06/17 04:07:14;;;;;;;9.80;6.90;;;;;;;;;;5011291;28;20049;-35
2021/06/17 04:09:43;;;;;;;8.38;5.85;;;;;;;;;;4998012;28;20133;-34
2021/06/17 04:12:11;;;;;;;7.68;5.60;;;;;;;;;;5012742;28;20070;-35
2021/06/17 04:14:39;;;;;;;7.00;5.95;;;;;;;;;;5011419;28;20050;-34
2021/06/17 04:17:06;;;;;;;10.23;6.82;;;;;;;;;;5003788;28;20050;-35
2021/06/17 04:19:35;;;;;;;19.20;6.55;;;;;;;;;;5011049;28;20053;-35
2021/06/17 04:22:08;;;;;;;8.27;6.20;;;;;;;;;;5011119;28;20500;-35
2021/06/17 04:24:38;;;;;;;8.77;6.10;;;;;;;;;;4995019;28;20491;-34
2021/06/17 04:27:06;;;;;;;10.40;7.25;;;;;;;;;;4995171;28;20050;-35
2021/06/17 04:29:37;;;;;;;11.57;7.18;;;;;;;;;;5007400;28;20134;-34
2021/06/17 04:32:05;;;;;;;10.75;6.82;;;;;;;;;;5010130;28;20104;-34
2021/06/17 04:34:32;;;;;;;10.02;6.78;;;;;;;;;;5009571;28;20418;-35
2021/06/17 04:36:59;;;;;;;10.70;6.60;;;;;;;;;;5010504;28;20058;-35
2021/06/17 04:39:27;;;;;;;13.13;6.80;;;;;;;;;;5011198;28;20452;-34
2021/06/17 04:41:56;;;;;;;13.50;6.93;;;;;;;;;;5010432;28;20058;-35
2021/06/17 04:44:23;;;;;;;7.45;5.80;;;;;;;;;;5009330;28;20487;-35
2021/06/17 04:46:50;;;;;;;9.70;8.52;;;;;;;;;;5012447;28;20054;-35
2021/06/17 04:49:18;;;;;;;9.18;7.85;;;;;;;;;;5014541;28;20060;-35
2021/06/17 04:51:45;;;;;;;11.20;6.68;;;;;;;;;;5023967;28;20522;-35
2021/06/17 04:54:21;;;;;;;10.80;6.90;;;;;;;;;;5010722;28;20128;-34
2021/06/17 04:56:47;;;;;;;9.38;6.20;;;;;;;;;;5010266;28;20042;-35
2021/06/17 04:59:15;;;;;;;10.55;7.10;;;;;;;;;;5010112;28;20057;-34
2021/06/17 05:01:42;;;;;;;12.80;6.88;;;;;;;;;;4990547;28;20137;-35
2021/06/17 05:04:10;;;;;;;11.18;6.40;;;;;;;;;;4998823;28;20047;-35
2021/06/17 05:06:39;;;;;;;11.45;6.43;;;;;;;;;;5002119;28;20121;-35
2021/06/17 05:11:52;;;;;;;11.38;6.32;;;;;;;;;;4992046;28;20066;-34
2021/06/17 05:14:22;;;;;;;9.65;6.20;;;;;;;;;;4999795;28;20145;-36
2021/06/17 05:16:48;;;;;;;11.60;6.15;;;;;;;;;;5012865;28;20172;-35
2021/06/17 05:19:15;;;;;;;8.07;5.88;;;;;;;;;;5008230;28;20104;-35
2021/06/17 05:21:42;;;;;;;9.55;5.65;;;;;;;;;;5011206;28;20053;-35
2021/06/17 05:24:09;;;;;;;7.55;5.38;;;;;;;;;;5010187;28;20484;-37
2021/06/17 05:26:36;;;;;;;9.02;5.47;;;;;;;;;;4996336;28;20050;-34
2021/06/17 05:29:03;;;;;;;8.10;5.95;;;;;;;;;;4992359;28;20050;-38
2021/06/17 05:31:30;;;;;;;9.32;5.93;;;;;;;;;;5005078;28;20123;-34
2021/06/17 05:33:57;;;;;;;9.90;5.05;;;;;;;;;;4992908;28;20129;-35
2021/06/17 05:36:24;;;;;;;6.85;5.38;;;;;;;;;;5014878;28;20062;-35
2021/06/17 05:38:51;;;;;;;9.93;5.60;;;;;;;;;;5014213;28;20107;-34
2021/06/17 05:41:18;;;;;;;9.15;5.45;;;;;;;;;;5013119;28;20465;-37
2021/06/17 05:43:45;;;;;;;7.70;5.20;;;;;;;;;;5010370;28;20058;-37
2021/06/17 05:46:12;;;;;;;8.88;5.47;;;;;;;;;;5014715;28;20192;-37
2021/06/17 05:48:38;;;;;;;11.48;5.93;;;;;;;;;;4994145;28;20396;-35
2021/06/17 05:51:05;;;;;;;9.88;6.18;;;;;;;;;;4996873;28;20050;-37
2021/06/17 05:53:32;;;;;;;7.70;5.07;;;;;;;;;;5015594;28;20057;-36
2021/06/17 05:55:59;;;;;;;6.38;5.60;;;;;;;;;;5005196;28;20474;-37
2021/06/17 05:58:26;;;;;;;7.70;5.95;;;;;;;;;;5014672;28;20070;-34
2021/06/17 06:00:52;;;;;;;9.40;5.82;;;;;;;;;;5013197;28;20050;-35
2021/06/17 06:03:19;;;;;;;8.48;5.47;;;;;;;;;;5012279;28;20117;-35
2021/06/17 06:05:46;;;;;;;11.00;5.65;;;;;;;;;;5011140;28;20046;-36
2021/06/17 06:08:13;;;;;;;9.82;5.97;;;;;;;;;;4996022;28;20104;-36
2021/06/17 06:10:41;;;;;;;10.93;6.22;;;;;;;;;;5014968;28;20104;-34
2021/06/17 06:13:08;;;;;;;9.45;6.05;;;;;;;;;;5003014;28;20051;-34
2021/06/17 06:15:35;;;;;;;10.95;5.57;;;;;;;;;;4995245;28;20065;-34
2021/06/17 06:18:06;;;;;;;7.00;5.25;;;;;;;;;;5010690;28;20112;-34
2021/06/17 06:20:33;;;;;;;8.75;5.55;;;;;;;;;;5012282;28;20097;-34
2021/06/17 06:23:00;;;;;;;8.20;5.70;;;;;;;;;;5013270;28;20068;-35
2021/06/17 06:25:27;;;;;;;11.68;5.80;;;;;;;;;;5013035;28;20045;-34
2021/06/17 06:27:54;;;;;;;9.48;5.45;;;;;;;;;;4999793;28;20131;-34
2021/06/17 06:30:21;;;;;;;7.97;5.97;;;;;;;;;;5014145;28;20104;-35
2021/06/17 06:32:48;;;;;;;10.43;5.10;;;;;;;;;;5012599;28;20128;-35
2021/06/17 06:35:15;;;;;;;9.32;5.22;;;;;;;;;;5011745;28;20124;-34
2021/06/17 06:37:50;;;;;;;6.40;4.68;;;;;;;;;;5001252;28;20062;-35
2021/06/17 06:40:18;;;;;;;10.98;5.70;;;;;;;;;;5013137;28;20058;-34
2021/06/17 06:42:45;;;;;;;12.77;10.10;;;;;;;;;;5013743;28;20438;-35
2021/06/17 06:45:12;;;;;;;9.73;5.63;;;;;;;;;;5006261;28;20062;-35
2021/06/17 06:47:39;;;;;;;9.20;5.45;;;;;;;;;;4990417;28;20053;-35
2021/06/17 06:50:07;;;;;;;6.72;4.57;;;;;;;;;;5010956;28;20069;-35
2021/06/17 06:52:34;;;;;;;6.55;5.10;;;;;;;;;;5011868;28;20049;-35
2021/06/17 06:55:01;;;;;;;8.02;4.60;;;;;;;;;;5013693;28;20046;-34
2021/06/17 06:57:30;;;;;;;8.32;5.22;;;;;;;;;;5005034;28;20144;-35
2021/06/17 06:59:56;;;;;;;8.48;4.60;;;;;;;;;;5013572;28;20129;-35
2021/06/17 07:02:23;;;;;;;8.52;4.80;;;;;;;;;;5014748;28;20058;-35
2021/06/17 07:04:50;;;;;;;8.77;5.47;;;;;;;;;;5011265;28;20091;-35
2021/06/17 07:07:17;;;;;;;7.78;4.97;;;;;;;;;;5013651;28;20050;-35
2021/06/17 07:09:43;;;;;;;7.25;4.90;;;;;;;;;;5012175;28;20041;-34
2021/06/17 07:12:10;;;;;;;8.52;4.47;;;;;;;;;;5013431;28;20058;-34
2021/06/17 07:14:42;;;;;;;7.00;4.43;;;;;;;;;;4998833;28;20125;-36
2021/06/17 07:17:09;;;;;;;7.57;4.57;;;;;;;;;;5010991;28;20088;-34
2021/06/17 07:19:36;;;;;;;8.27;4.57;;;;;;;;;;4995821;28;20548;-35
2021/06/17 07:22:03;;;;;;;11.80;4.40;;;;;;;;;;5010427;28;20477;-34
2021/06/17 07:24:29;;;;;;;9.68;4.93;;;;;;;;;;5010398;28;20155;-35
2021/06/17 07:26:56;;;;;;;6.45;4.78;;;;;;;;;;5001858;28;20566;-34
2021/06/17 07:29:23;;;;;;;7.38;4.63;;;;;;;;;;5003388;28;20050;-35
2021/06/17 07:31:50;;;;;;;8.45;4.60;;;;;;;;;;5011381;28;20050;-35
2021/06/17 07:34:17;;;;;;;7.15;4.72;;;;;;;;;;5006734;28;20543;-34
2021/06/17 07:36:44;;;;;;;14.50;5.07;;;;;;;;;;5005842;28;20092;-35
2021/06/17 07:39:11;;;;;;;8.93;4.32;;;;;;;;;;5010876;28;20075;-35
2021/06/17 07:41:38;;;;;;;8.05;4.93;;;;;;;;;;4976136;28;20054;-34
2021/06/17 07:44:06;;;;;;;9.57;4.28;;;;;;;;;;4993917;28;20096;-35
2021/06/17 07:46:33;;;;;;;11.27;4.72;;;;;;;;;;5000211;28;20073;-35
2021/06/17 07:49:00;;;;;;;10.57;4.40;;;;;;;;;;5016705;28;20495;-34
2021/06/17 07:51:28;;;;;;;13.93;5.50;;;;;;;;;;5010938;28;20056;-34
2021/06/17 07:53:59;;;;;;;5.80;4.43;;;;;;;;;;5010812;28;20458;-35
2021/06/17 07:56:26;;;;;;;9.40;4.68;;;;;;;;;;4997210;28;20047;-35
2021/06/17 07:58:53;;;;;;;5.80;4.55;;;;;;;;;;4995169;28;20057;-35
2021/06/17 08:01:20;;;;;;;9.15;4.63;;;;;;;;;;5009529;28;20045;-35
2021/06/17 08:03:48;;;;;;;6.97;4.45;;;;;;;;;;5008270;28;20162;-35
2021/06/17 08:06:14;;;;;;;7.18;4.43;;;;;;;;;;5012260;28;20057;-35
2021/06/17 08:08:42;;;;;;;6.80;4.47;;;;;;;;;;5008430;28;20547;-35
2021/06/17 08:11:09;;;;;;;12.45;5.00;;;;;;;;;;5004414;28;20112;-35
2021/06/17 08:13:52;;;;;;;9.38;4.65;;;;;;;;;;5012874;28;20048;-35
2021/06/17 08:16:19;;;;;;;7.03;4.22;;;;;;;;;;5005652;28;20054;-34
2021/06/17 08:18:46;;;;;;;7.43;4.60;;;;;;;;;;4990165;28;20058;-35
2021/06/17 08:21:12;;;;;;;11.35;4.68;;;;;;;;;;5001444;28;20049;-34
2021/06/17 08:23:39;;;;;;;7.10;4.40;;;;;;;;;;5011378;28;20167;-36
2021/06/17 08:26:07;;;;;;;7.93;4.57;;;;;;;;;;5007819;28;20467;-35
2021/06/17 08:28:34;;;;;;;5.97;4.18;;;;;;;;;;5001227;28;20045;-34
2021/06/17 08:31:01;;;;;;;11.85;5.70;;;;;;;;;;4993551;28;20065;-34
2021/06/17 08:33:32;;;;;;;10.85;4.60;;;;;;;;;;5011844;28;20050;-34
2021/06/17 08:36:02;;;;;;;9.50;4.80;;;;;;;;;;4996746;28;20137;-34
2021/06/17 08:38:29;;;;;;;6.28;4.68;;;;;;;;;;5011369;28;20100;-34
2021/06/17 08:40:56;;;;;;;12.27;4.47;;;;;;;;;;5010913;28;20054;-35
2021/06/17 08:43:23;;;;;;;7.38;4.10;;;;;;;;;;5012262;28;20062;-34
2021/06/17 08:45:50;;;;;;;8.98;4.85;;;;;;;;;;5017275;28;20057;-35
2021/06/17 08:48:17;;;;;;;15.15;10.15;;;;;;;;;;5000138;28;20448;-34
2021/06/17 08:50:44;;;;;;;8.07;6.20;;;;;;;;;;4974803;28;20046;-34
2021/06/17 08:53:11;;;;;;;8.98;5.68;;;;;;;;;;4992372;28;20112;-34
2021/06/17 08:55:39;;;;;;;8.80;5.53;;;;;;;;;;4992261;28;20093;-34
2021/06/17 08:58:06;;;;;;;8.25;4.90;;;;;;;;;;4996122;28;20523;-34
2021/06/17 09:00:34;;;;;;;7.15;4.65;;;;;;;;;;4991929;28;20134;-35
2021/06/17 09:03:05;;;;;;;9.00;5.05;;;;;;;;;;4992239;28;20050;-35
2021/06/17 09:05:33;;;;;;;6.22;4.93;;;;;;;;;;4974570;28;20081;-34
2021/06/17 09:08:01;;;;;;;13.75;5.40;;;;;;;;;;4991915;28;20101;-34
2021/06/17 09:10:28;;;;;;;8.85;5.70;;;;;;;;;;4991844;28;20431;-35
2021/06/17 09:12:56;;;;;;;10.10;5.70;;;;;;;;;;4992214;28;20467;-34
2021/06/17 09:15:27;;;;;;;8.50;5.38;;;;;;;;;;5002301;28;20084;-34
2021/06/17 09:18:13;;;;;;;10.00;7.70;;;;;;;;;;5010836;28;20446;-35
2021/06/17 09:20:48;;;;;;;10.43;5.63;;;;;;;;;;4993703;28;20105;-35
2021/06/17 09:23:17;;;;;;;7.75;5.10;;;;;;;;;;5007984;28;20050;-35
2021/06/17 09:25:48;;;;;;;12.30;5.70;;;;;;;;;;4990998;28;20061;-36
2021/06/17 09:28:15;;;;;;;7.80;5.65;;;;;;;;;;5007875;28;20050;-35
2021/06/17 09:30:42;;;;;;;11.90;5.60;;;;;;;;;;5009201;28;20077;-36
2021/06/17 09:33:11;;;;;;;9.95;5.35;;;;;;;;;;5010514;28;20080;-35
2021/06/17 09:35:52;;;;;;;6.93;4.93;;;;;;;;;;5010853;28;20074;-35
2021/06/17 09:38:19;;;;;;;8.80;4.82;;;;;;;;;;4998173;28;20061;-35
2021/06/17 09:40:47;;;;;;;10.02;5.07;;;;;;;;;;5006409;28;20192;-35
2021/06/17 09:43:19;;;;;;;7.97;5.72;;;;;;;;;;4993447;28;20046;-36
2021/06/17 09:45:53;;;;;;;10.52;5.60;;;;;;;;;;5007131;28;20064;-36
2021/06/17 09:48:34;;;;;;;9.13;5.10;;;;;;;;;;5006351;28;20053;-36
2021/06/17 09:51:20;;;;;;;7.93;4.68;;;;;;;;;;5008255;28;20081;-36
2021/06/17 09:53:47;;;;;;;8.70;3.75;;;;;;;;;;4990212;28;20057;-36
2021/06/17 09:56:14;;;;;;;4.43;3.05;;;;;;;;;;5002321;28;20053;-36
2021/06/17 09:58:45;;;;;;;5.82;3.45;;;;;;;;;;5007821;28;20054;-36
2021/06/17 10:01:16;;;;;;;9.23;4.55;;;;;;;;;;5008353;28;20080;-36
2021/06/17 10:04:05;;;;;;;6.25;4.35;;;;;;;;;;5007674;28;20053;-37
2021/06/17 10:06:36;;;;;;;7.50;3.92;;;;;;;;;;5005428;28;20492;-36
2021/06/17 10:09:11;;;;;;;5.65;3.80;;;;;;;;;;5009591;28;20659;-36
2021/06/17 10:11:38;;;;;;;4.28;3.70;;;;;;;;;;4990343;28;20146;-37
2021/06/17 10:14:05;;;;;;;9.35;3.90;;;;;;;;;;5009858;28;20068;-36
2021/06/17 10:16:33;;;;;;;9.88;6.25;;;;;;;;;;5005334;28;20112;-36
2021/06/17 10:19:00;;;;;;;8.20;4.38;;;;;;;;;;5004357;28;20042;-37
2021/06/17 10:21:28;;;;;;;6.57;4.20;;;;;;;;;;5014780;28;20050;-36
2021/06/17 10:23:55;;;;;;;5.57;4.35;;;;;;;;;;5016017;28;20500;-36
2021/06/17 10:26:23;;;;;;;7.57;4.63;;;;;;;;;;4995531;28;20124;-35
2021/06/17 10:28:51;;;;;;;6.32;3.65;;;;;;;;;;4977873;28;20077;-37
2021/06/17 10:31:36;;;;;;;7.50;4.13;;;;;;;;;;4994989;28;20531;-36
2021/06/17 10:34:22;;;;;;;9.05;3.72;;;;;;;;;;5007436;28;20046;-36
2021/06/17 10:37:08;;;;;;;9.00;4.18;;;;;;;;;;5008599;28;20129;-36
2021/06/17 10:39:45;;;;;;;8.07;3.75;;;;;;;;;;5013944;28;20062;-36
2021/06/17 10:42:16;;;;;;;6.60;3.78;;;;;;;;;;4996063;28;20050;-36
2021/06/17 10:44:43;;;;;;;6.88;3.45;;;;;;;;;;5011417;28;20042;-37
2021/06/17 10:47:29;;;;;;;8.02;3.72;;;;;;;;;;4993938;28;20100;-36
2021/06/17 10:49:57;;;;;;;7.25;3.90;;;;;;;;;;5000740;28;20088;-36
2021/06/17 10:52:26;;;;;;;5.57;3.40;;;;;;;;;;4997015;28;20054;-37
2021/06/17 10:54:57;;;;;;;5.68;3.30;;;;;;;;;;5011504;28;20098;-37
2021/06/17 10:57:46;;;;;;;5.28;2.90;;;;;;;;;;5016581;28;20359;-36
2021/06/17 11:00:25;;;;;;;5.65;2.83;;;;;;;;;;5019217;28;20550;-36
2021/06/17 11:02:55;;;;;;;3.60;2.67;;;;;;;;;;5013356;28;20392;-36
2021/06/17 11:08:19;;;;;;;3.05;2.20;;;;;;;;;;5000291;28;20507;-36
2021/06/17 11:10:58;;;;;;;9.13;2.80;;;;;;;;;;5011151;28;20080;-36
2021/06/17 11:13:28;;;;;;;2.88;2.58;;;;;;;;;;5001549;28;20053;-36
2021/06/17 11:15:55;;;;;;;4.82;2.83;;;;;;;;;;4996298;28;20073;-37
2021/06/17 11:19:04;;;;;;;3.47;2.42;;;;;;;;;;5000799;28;20512;-37
2021/06/17 11:21:37;;;;;;;4.22;2.40;;;;;;;;;;5013203;28;20086;-37
2021/06/17 11:24:07;;;;;;;4.65;2.45;;;;;;;;;;5014013;28;20520;-36
2021/06/17 11:26:35;;;;;;;5.70;3.33;;;;;;;;;;5009821;28;20150;-36
2021/06/17 11:29:41;;;;;;;3.00;2.30;;;;;;;;;;5012231;28;20050;-36
2021/06/17 11:32:25;;;;;;;8.80;3.55;;;;;;;;;;5009856;28;20045;-37
2021/06/17 11:34:52;;;;;;;6.43;3.03;;;;;;;;;;5006808;28;20144;-36
2021/06/17 11:37:19;;;;;;;5.55;3.05;;;;;;;;;;5012643;28;20073;-37
2021/06/17 11:39:46;;;;;;;3.15;2.15;;;;;;;;;;5011253;28;20411;-36
2021/06/17 11:42:21;;;;;;;3.35;2.10;;;;;;;;;;5011784;28;20534;-37
2021/06/17 11:45:02;;;;;;;4.32;2.30;;;;;;;;;;5012517;28;20077;-36
2021/06/17 11:47:29;;;;;;;10.65;3.95;;;;;;;;;;5007609;28;20133;-36
2021/06/17 11:50:03;;;;;;;11.18;4.20;;;;;;;;;;5007300;28;20057;-36
2021/06/17 11:52:35;;;;;;;5.60;2.28;;;;;;;;;;5010221;28;20045;-36
2021/06/17 11:55:02;;;;;;;;;;;;;;;;;;5010498;28;20126;-36
2021/06/17 11:57:29;;;;;;;9.02;3.83;;;;;;;;;;5008812;28;19935;-36
2021/06/17 11:59:56;;;;;;;6.38;2.40;;;;;;;;;;5007044;28;20074;-37
2021/06/17 12:02:23;;;;;;;3.88;2.30;;;;;;;;;;5010818;28;20526;-36
2021/06/17 12:05:04;;;;;;;7.80;2.20;;;;;;;;;;5012477;28;20503;-35
2021/06/17 12:07:33;;;;;;;9.40;2.40;;;;;;;;;;5009714;28;20172;-35
2021/06/17 12:10:03;;;;;;;3.70;2.03;;;;;;;;;;5010412;28;20072;-34
2021/06/17 12:12:31;;;;;;;2.88;1.92;;;;;;;;;;5008650;28;20104;-34
2021/06/17 12:14:57;;;;;;;5.00;2.00;;;;;;;;;;5007142;28;20413;-34
2021/06/17 12:17:44;;;;;;;3.63;1.98;;;;;;;;;;5008805;28;20161;-34
2021/06/17 12:20:11;;;;;;;4.25;2.05;;;;;;;;;;5007849;28;20065;-35
2021/06/17 12:22:43;;;;;;;4.68;2.00;;;;;;;;;;5009601;28;20056;-35
2021/06/17 12:25:10;;;;;;;4.57;2.27;;;;;;;;;;5009931;28;20084;-35
2021/06/17 12:27:40;;;;;;;4.88;1.85;;;;;;;;;;5007935;28;20080;-36
2021/06/17 12:30:24;;;;;;;5.30;2.08;;;;;;;;;;4999254;28;20057;-35
2021/06/17 12:32:51;;;;;;;3.10;2.10;;;;;;;;;;5010316;28;20092;-35
2021/06/17 12:35:18;;;;;;;3.47;2.40;;;;;;;;;;5003698;28;20042;-35
2021/06/17 12:37:50;;;;;;;2.80;2.15;;;;;;;;;;4996594;28;20380;-35
2021/06/17 12:40:36;;;;;;;4.30;2.28;;;;;;;;;;5011884;28;20411;-36
2021/06/17 12:43:03;;;;;;;4.80;2.40;;;;;;;;;;5004524;28;20109;-35
2021/06/17 12:45:30;;;;;;;3.75;2.15;;;;;;;;;;4992757;28;20085;-34
2021/06/17 12:48:03;;;;;;;2.85;2.13;;;;;;;;;;4994760;28;20112;-36
2021/06/17 12:53:15;;;;;;;4.25;2.40;;;;;;;;;;4995032;28;20080;-35
2021/06/17 12:55:42;;;;;;;5.47;2.55;;;;;;;;;;5015955;28;20053;-35
2021/06/17 12:58:12;;;;;;;3.83;2.30;;;;;;;;;;4991034;28;20052;-35
2021/06/17 13:00:52;;;;;;;3.92;2.35;;;;;;;;;;4992209;28;20081;-36
2021/06/17 13:03:23;;;;;;;5.05;2.83;;;;;;;;;;4996336;28;20427;-36
2021/06/17 13:05:52;;;;;;;4.53;2.28;;;;;;;;;;5008417;28;20078;-36
2021/06/17 13:08:21;;;;;;;5.55;2.50;;;;;;;;;;4997464;28;20077;-36
2021/06/17 13:10:50;;;;;;;5.40;2.15;;;;;;;;;;5013669;28;20075;-35
2021/06/17 13:13:21;;;;;;;4.63;2.15;;;;;;;;;;5015292;28;20038;-36
2021/06/17 13:15:50;;;;;;;3.40;2.17;;;;;;;;;;5002084;28;20119;-35
2021/06/17 13:18:17;;;;;;;5.07;2.80;;;;;;;;;;5004852;28;20131;-36
2021/06/17 13:20:46;;;;;;;4.13;2.70;;;;;;;;;;4994042;28;20050;-36
2021/06/17 13:23:19;;;;;;;3.72;2.30;;;;;;;;;;5012166;28;20124;-36
2021/06/17 13:25:57;;;;;;;3.58;2.53;;;;;;;;;;5012215;28;20100;-36
2021/06/17 13:28:25;;;;;;;5.05;2.15;;;;;;;;;;5000811;28;20064;-35
2021/06/17 13:30:52;;;;;;;3.67;2.05;;;;;;;;;;5011537;28;20077;-35
2021/06/17 13:33:19;;;;;;;3.55;2.30;;;;;;;;;;5012004;28;20558;-36
2021/06/17 13:35:45;;;;;;;3.67;2.28;;;;;;;;;;4990625;28;20050;-36
2021/06/17 13:38:18;;;;;;;8.20;2.20;;;;;;;;;;5005806;28;20175;-35
2021/06/17 13:40:46;;;;;;;4.13;2.40;;;;;;;;;;5011494;28;20092;-36
2021/06/17 13:43:13;;;;;;;4.28;2.17;;;;;;;;;;5011150;28;20085;-35
2021/06/17 13:45:40;;;;;;;3.47;2.13;;;;;;;;;;5004832;28;20574;-35
2021/06/17 13:48:08;;;;;;;5.07;2.35;;;;;;;;;;5000960;28;20050;-36
2021/06/17 13:50:36;;;;;;;4.47;2.15;;;;;;;;;;5005428;28;20111;-36
2021/06/17 13:53:05;;;;;;;3.45;2.22;;;;;;;;;;4993905;28;20100;-36
2021/06/17 13:55:32;;;;;;;4.85;2.35;;;;;;;;;;5013048;28;20046;-36
2021/06/17 13:58:00;;;;;;;4.00;2.35;;;;;;;;;;5018830;28;20076;-35
2021/06/17 14:00:27;;;;;;;4.15;2.10;;;;;;;;;;5014646;28;20141;-36
2021/06/17 14:02:56;;;;;;;5.45;2.08;;;;;;;;;;5013138;28;20563;-35
2021/06/17 14:05:23;;;;;;;5.05;2.58;;;;;;;;;;5013216;28;20144;-36
2021/06/17 14:07:49;;;;;;;4.93;2.50;;;;;;;;;;5015023;28;20092;-36
2021/06/17 14:10:17;;;;;;;3.08;2.25;;;;;;;;;;5014659;28;20384;-36
2021/06/17 14:12:46;;;;;;;6.10;2.78;;;;;;;;;;5007856;28;20058;-36
2021/06/17 14:15:14;;;;;;;7.97;4.75;;;;;;;;;;5012973;28;20076;-35
2021/06/17 14:17:43;;;;;;;4.00;2.30;;;;;;;;;;5010314;28;20046;-36
2021/06/17 14:20:10;;;;;;;4.20;2.10;;;;;;;;;;4995149;28;20077;-36
2021/06/17 14:22:38;;;;;;;2.92;2.30;;;;;;;;;;4995419;28;20154;-35
2021/06/17 14:25:05;;;;;;;3.35;2.13;;;;;;;;;;4997523;28;20054;-35
2021/06/17 14:27:32;;;;;;;4.43;2.13;;;;;;;;;;4996857;28;20386;-36
2021/06/17 14:29:58;;;;;;;4.82;2.65;;;;;;;;;;4999781;28;20508;-36
2021/06/17 14:32:25;;;;;;;4.45;2.10;;;;;;;;;;5003665;28;20122;-35
2021/06/17 14:34:52;;;;;;;5.25;2.10;;;;;;;;;;5014237;28;20045;-36
2021/06/17 14:37:19;;;;;;;5.90;2.40;;;;;;;;;;5014230;28;20054;-35
2021/06/17 14:39:46;;;;;;;7.80;2.38;;;;;;;;;;5013276;28;20121;-36
2021/06/17 14:42:23;;;;;;;4.68;2.35;;;;;;;;;;5009516;28;20133;-36
2021/06/17 14:44:50;;;;;;;4.60;2.10;;;;;;;;;;5013945;28;20136;-35
2021/06/17 14:47:17;;;;;;;3.85;2.00;;;;;;;;;;5012502;28;20042;-36
2021/06/17 14:49:44;;;;;;;2.95;2.00;;;;;;;;;;5010319;28;20050;-36
2021/06/17 14:52:11;;;;;;;3.25;1.90;;;;;;;;;;5013024;28;20047;-36
2021/06/17 14:54:38;;;;;;;3.33;2.10;;;;;;;;;;5014199;28;20448;-35
2021/06/17 14:57:05;;;;;;;5.78;2.00;;;;;;;;;;4995355;28;20069;-36
2021/06/17 14:59:32;;;;;;;3.83;1.98;;;;;;;;;;5013819;28;20062;-35
2021/06/17 15:02:01;;;;;;;2.65;1.80;;;;;;;;;;5014729;28;20054;-36